sensor_id;sensor_type;location;lat;lon;timestamp;temperature;humidity
67050;DHT22;53955;52.442;13.284;2023-02-03T00:02:11;5.90;69.10
67050;DHT22;53955;52.442;13.284;2023-02-03T00:04:38;5.90;69.40
67050;DHT22;53955;52.442;13.284;2023-02-03T00:07:04;6.00;69.60
67050;DHT22;53955;52.442;13.284;2023-02-03T00:09:31;6.00;69.80
67050;DHT22;53955;52.442;13.284;2023-02-03T00:11:57;5.70;70.70
67050;DHT22;53955;52.442;13.284;2023-02-03T00:14:25;5.80;70.90
67050;DHT22;53955;52.442;13.284;2023-02-03T00:16:51;5.80;70.60
67050;DHT22;53955;52.442;13.284;2023-02-03T00:19:18;5.90;70.80
67050;DHT22;53955;52.442;13.284;2023-02-03T00:21:44;5.90;71.40
67050;DHT22;53955;52.442;13.284;2023-02-03T00:24:11;5.90;72.00
67050;DHT22;53955;52.442;13.284;2023-02-03T00:26:39;5.80;71.90
67050;DHT22;53955;52.442;13.284;2023-02-03T00:29:06;5.90;72.50
67050;DHT22;53955;52.442;13.284;2023-02-03T00:31:34;5.90;73.60
67050;DHT22;53955;52.442;13.284;2023-02-03T00:34:01;5.70;73.90
67050;DHT22;53955;52.442;13.284;2023-02-03T00:36:27;5.70;74.00
67050;DHT22;53955;52.442;13.284;2023-02-03T00:38:54;5.90;75.10
67050;DHT22;53955;52.442;13.284;2023-02-03T00:41:21;5.70;75.80
67050;DHT22;53955;52.442;13.284;2023-02-03T00:43:47;5.80;76.30
67050;DHT22;53955;52.442;13.284;2023-02-03T00:46:14;5.90;75.20
67050;DHT22;53955;52.442;13.284;2023-02-03T00:48:42;5.80;75.50
67050;DHT22;53955;52.442;13.284;2023-02-03T00:51:08;5.90;76.60
67050;DHT22;53955;52.442;13.284;2023-02-03T00:53:35;5.70;77.00
67050;DHT22;53955;52.442;13.284;2023-02-03T00:56:01;5.80;77.30
67050;DHT22;53955;52.442;13.284;2023-02-03T00:58:28;5.60;77.30
67050;DHT22;53955;52.442;13.284;2023-02-03T01:00:54;5.80;77.70
67050;DHT22;53955;52.442;13.284;2023-02-03T01:03:21;5.70;77.80
67050;DHT22;53955;52.442;13.284;2023-02-03T01:05:49;5.60;77.70
67050;DHT22;53955;52.442;13.284;2023-02-03T01:08:15;5.60;78.10
67050;DHT22;53955;52.442;13.284;2023-02-03T01:10:42;5.70;78.30
67050;DHT22;53955;52.442;13.284;2023-02-03T01:13:08;5.70;78.60
67050;DHT22;53955;52.442;13.284;2023-02-03T01:15:35;5.80;78.80
67050;DHT22;53955;52.442;13.284;2023-02-03T01:18:01;5.50;78.80
67050;DHT22;53955;52.442;13.284;2023-02-03T01:20:28;5.60;79.00
67050;DHT22;53955;52.442;13.284;2023-02-03T01:22:56;5.50;78.70
67050;DHT22;53955;52.442;13.284;2023-02-03T01:25:22;5.60;79.20
67050;DHT22;53955;52.442;13.284;2023-02-03T01:27:49;5.70;78.80
67050;DHT22;53955;52.442;13.284;2023-02-03T01:30:16;5.60;79.40
67050;DHT22;53955;52.442;13.284;2023-02-03T01:32:42;5.80;79.10
67050;DHT22;53955;52.442;13.284;2023-02-03T01:35:08;5.70;79.20
67050;DHT22;53955;52.442;13.284;2023-02-03T01:37:35;5.70;79.30
67050;DHT22;53955;52.442;13.284;2023-02-03T01:40:03;5.70;79.30
67050;DHT22;53955;52.442;13.284;2023-02-03T01:42:31;5.60;80.00
67050;DHT22;53955;52.442;13.284;2023-02-03T01:44:57;5.60;79.70
67050;DHT22;53955;52.442;13.284;2023-02-03T01:47:26;5.80;79.80
67050;DHT22;53955;52.442;13.284;2023-02-03T01:49:55;5.70;79.40
67050;DHT22;53955;52.442;13.284;2023-02-03T01:52:22;5.70;79.50
67050;DHT22;53955;52.442;13.284;2023-02-03T01:54:51;5.70;79.80
67050;DHT22;53955;52.442;13.284;2023-02-03T01:57:21;5.60;79.90
67050;DHT22;53955;52.442;13.284;2023-02-03T01:59:48;5.70;79.70
67050;DHT22;53955;52.442;13.284;2023-02-03T02:02:14;5.50;80.10
67050;DHT22;53955;52.442;13.284;2023-02-03T02:04:42;5.50;79.80
67050;DHT22;53955;52.442;13.284;2023-02-03T02:07:10;5.50;80.40
67050;DHT22;53955;52.442;13.284;2023-02-03T02:09:36;5.60;80.00
67050;DHT22;53955;52.442;13.284;2023-02-03T02:12:03;5.70;80.30
67050;DHT22;53955;52.442;13.284;2023-02-03T02:14:31;5.70;79.90
67050;DHT22;53955;52.442;13.284;2023-02-03T02:16:59;5.70;79.50
67050;DHT22;53955;52.442;13.284;2023-02-03T02:19:41;5.60;79.40
67050;DHT22;53955;52.442;13.284;2023-02-03T02:22:10;5.30;79.90
67050;DHT22;53955;52.442;13.284;2023-02-03T02:24:50;5.30;79.90
67050;DHT22;53955;52.442;13.284;2023-02-03T02:27:25;5.40;80.40
67050;DHT22;53955;52.442;13.284;2023-02-03T02:30:09;5.40;80.00
67050;DHT22;53955;52.442;13.284;2023-02-03T02:32:43;5.40;80.10
67050;DHT22;53955;52.442;13.284;2023-02-03T02:35:14;5.40;80.00
67050;DHT22;53955;52.442;13.284;2023-02-03T02:37:44;5.30;80.80
67050;DHT22;53955;52.442;13.284;2023-02-03T02:40:15;5.40;80.00
67050;DHT22;53955;52.442;13.284;2023-02-03T02:42:45;5.30;80.30
67050;DHT22;53955;52.442;13.284;2023-02-03T02:45:16;5.40;80.30
67050;DHT22;53955;52.442;13.284;2023-02-03T02:47:48;5.10;80.40
67050;DHT22;53955;52.442;13.284;2023-02-03T02:50:15;5.20;80.10
67050;DHT22;53955;52.442;13.284;2023-02-03T02:52:43;5.40;80.60
67050;DHT22;53955;52.442;13.284;2023-02-03T02:55:12;5.20;80.80
67050;DHT22;53955;52.442;13.284;2023-02-03T02:57:39;5.30;80.90
67050;DHT22;53955;52.442;13.284;2023-02-03T03:00:07;5.20;81.10
67050;DHT22;53955;52.442;13.284;2023-02-03T03:02:34;5.40;81.00
67050;DHT22;53955;52.442;13.284;2023-02-03T03:05:02;5.30;80.80
67050;DHT22;53955;52.442;13.284;2023-02-03T03:07:29;5.50;81.00
67050;DHT22;53955;52.442;13.284;2023-02-03T03:10:00;5.40;80.80
67050;DHT22;53955;52.442;13.284;2023-02-03T03:12:28;5.50;80.80
67050;DHT22;53955;52.442;13.284;2023-02-03T03:14:56;5.40;80.70
67050;DHT22;53955;52.442;13.284;2023-02-03T03:17:25;5.40;80.80
67050;DHT22;53955;52.442;13.284;2023-02-03T03:19:53;5.40;81.20
67050;DHT22;53955;52.442;13.284;2023-02-03T03:22:21;5.30;80.80
67050;DHT22;53955;52.442;13.284;2023-02-03T03:24:51;5.50;81.20
67050;DHT22;53955;52.442;13.284;2023-02-03T03:27:21;5.20;81.20
67050;DHT22;53955;52.442;13.284;2023-02-03T03:29:51;5.30;82.20
67050;DHT22;53955;52.442;13.284;2023-02-03T03:32:19;5.30;82.00
67050;DHT22;53955;52.442;13.284;2023-02-03T03:34:46;5.30;81.90
67050;DHT22;53955;52.442;13.284;2023-02-03T03:37:16;5.30;82.60
67050;DHT22;53955;52.442;13.284;2023-02-03T03:39:49;5.40;82.50
67050;DHT22;53955;52.442;13.284;2023-02-03T03:42:19;5.40;82.50
67050;DHT22;53955;52.442;13.284;2023-02-03T03:44:51;5.30;82.20
67050;DHT22;53955;52.442;13.284;2023-02-03T03:47:23;5.30;82.10
67050;DHT22;53955;52.442;13.284;2023-02-03T03:49:52;5.40;82.60
67050;DHT22;53955;52.442;13.284;2023-02-03T03:52:23;5.30;82.30
67050;DHT22;53955;52.442;13.284;2023-02-03T03:54:53;5.50;82.30
67050;DHT22;53955;52.442;13.284;2023-02-03T03:57:23;5.60;82.40
67050;DHT22;53955;52.442;13.284;2023-02-03T03:59:50;5.40;82.60
67050;DHT22;53955;52.442;13.284;2023-02-03T04:02:18;5.60;82.50
67050;DHT22;53955;52.442;13.284;2023-02-03T04:04:47;5.70;82.80
67050;DHT22;53955;52.442;13.284;2023-02-03T04:07:15;5.60;82.50
67050;DHT22;53955;52.442;13.284;2023-02-03T04:09:41;5.80;82.60
67050;DHT22;53955;52.442;13.284;2023-02-03T04:12:15;5.80;82.10
67050;DHT22;53955;52.442;13.284;2023-02-03T04:14:44;5.90;82.20
67050;DHT22;53955;52.442;13.284;2023-02-03T04:17:10;5.80;82.20
67050;DHT22;53955;52.442;13.284;2023-02-03T04:19:37;6.00;82.40
67050;DHT22;53955;52.442;13.284;2023-02-03T04:22:03;6.20;83.50
67050;DHT22;53955;52.442;13.284;2023-02-03T04:24:30;6.20;82.60
67050;DHT22;53955;52.442;13.284;2023-02-03T04:26:57;6.20;82.20
67050;DHT22;53955;52.442;13.284;2023-02-03T04:29:25;6.30;82.20
67050;DHT22;53955;52.442;13.284;2023-02-03T04:31:51;6.30;82.20
67050;DHT22;53955;52.442;13.284;2023-02-03T04:34:18;6.40;82.20
67050;DHT22;53955;52.442;13.284;2023-02-03T04:36:44;6.20;82.00
67050;DHT22;53955;52.442;13.284;2023-02-03T04:39:11;6.40;82.20
67050;DHT22;53955;52.442;13.284;2023-02-03T04:41:37;6.40;82.80
67050;DHT22;53955;52.442;13.284;2023-02-03T04:44:04;6.40;82.70
67050;DHT22;53955;52.442;13.284;2023-02-03T04:46:32;6.40;82.80
67050;DHT22;53955;52.442;13.284;2023-02-03T04:48:59;6.40;83.20
67050;DHT22;53955;52.442;13.284;2023-02-03T04:51:26;6.40;83.10
67050;DHT22;53955;52.442;13.284;2023-02-03T04:53:52;6.60;83.40
67050;DHT22;53955;52.442;13.284;2023-02-03T04:56:19;6.70;83.40
67050;DHT22;53955;52.442;13.284;2023-02-03T04:58:46;6.80;83.80
67050;DHT22;53955;52.442;13.284;2023-02-03T05:01:12;6.80;83.80
67050;DHT22;53955;52.442;13.284;2023-02-03T05:03:40;6.80;83.80
67050;DHT22;53955;52.442;13.284;2023-02-03T05:06:07;6.90;84.40
67050;DHT22;53955;52.442;13.284;2023-02-03T05:08:33;7.00;84.50
67050;DHT22;53955;52.442;13.284;2023-02-03T05:11:00;7.00;84.40
67050;DHT22;53955;52.442;13.284;2023-02-03T05:13:27;7.00;84.60
67050;DHT22;53955;52.442;13.284;2023-02-03T05:15:53;7.20;84.50
67050;DHT22;53955;52.442;13.284;2023-02-03T05:18:20;7.20;84.50
67050;DHT22;53955;52.442;13.284;2023-02-03T05:20:48;7.30;85.20
67050;DHT22;53955;52.442;13.284;2023-02-03T05:23:14;7.40;84.90
67050;DHT22;53955;52.442;13.284;2023-02-03T05:25:42;7.30;85.80
67050;DHT22;53955;52.442;13.284;2023-02-03T05:28:09;7.30;85.90
67050;DHT22;53955;52.442;13.284;2023-02-03T05:30:35;7.60;86.00
67050;DHT22;53955;52.442;13.284;2023-02-03T05:33:02;7.60;86.30
67050;DHT22;53955;52.442;13.284;2023-02-03T05:35:29;7.60;85.80
67050;DHT22;53955;52.442;13.284;2023-02-03T05:37:56;7.70;86.20
67050;DHT22;53955;52.442;13.284;2023-02-03T05:40:23;7.80;86.40
67050;DHT22;53955;52.442;13.284;2023-02-03T05:43:07;7.90;86.80
67050;DHT22;53955;52.442;13.284;2023-02-03T05:45:34;7.90;86.50
67050;DHT22;53955;52.442;13.284;2023-02-03T05:48:00;7.90;87.00
67050;DHT22;53955;52.442;13.284;2023-02-03T05:50:28;7.90;86.80
67050;DHT22;53955;52.442;13.284;2023-02-03T05:52:58;7.90;87.00
67050;DHT22;53955;52.442;13.284;2023-02-03T05:55:25;8.10;87.30
67050;DHT22;53955;52.442;13.284;2023-02-03T05:57:52;8.10;87.50
67050;DHT22;53955;52.442;13.284;2023-02-03T06:00:19;8.10;87.60
67050;DHT22;53955;52.442;13.284;2023-02-03T06:02:50;8.20;87.30
67050;DHT22;53955;52.442;13.284;2023-02-03T06:05:16;8.20;88.10
67050;DHT22;53955;52.442;13.284;2023-02-03T06:07:43;8.20;87.60
67050;DHT22;53955;52.442;13.284;2023-02-03T06:10:11;8.20;87.60
67050;DHT22;53955;52.442;13.284;2023-02-03T06:12:38;8.30;87.90
67050;DHT22;53955;52.442;13.284;2023-02-03T06:15:05;8.30;87.70
67050;DHT22;53955;52.442;13.284;2023-02-03T06:17:32;8.40;87.80
67050;DHT22;53955;52.442;13.284;2023-02-03T06:20:00;8.20;87.50
67050;DHT22;53955;52.442;13.284;2023-02-03T06:22:27;8.40;88.10
67050;DHT22;53955;52.442;13.284;2023-02-03T06:24:53;8.40;87.70
67050;DHT22;53955;52.442;13.284;2023-02-03T06:27:21;8.40;87.60
67050;DHT22;53955;52.442;13.284;2023-02-03T06:29:48;8.40;88.00
67050;DHT22;53955;52.442;13.284;2023-02-03T06:32:14;8.50;87.70
67050;DHT22;53955;52.442;13.284;2023-02-03T06:34:41;8.50;87.90
67050;DHT22;53955;52.442;13.284;2023-02-03T06:37:08;8.50;87.60
67050;DHT22;53955;52.442;13.284;2023-02-03T06:39:34;8.40;87.90
67050;DHT22;53955;52.442;13.284;2023-02-03T06:42:01;8.40;88.30
67050;DHT22;53955;52.442;13.284;2023-02-03T06:44:29;8.60;88.00
67050;DHT22;53955;52.442;13.284;2023-02-03T06:46:56;8.60;87.90
67050;DHT22;53955;52.442;13.284;2023-02-03T06:49:23;8.50;88.40
67050;DHT22;53955;52.442;13.284;2023-02-03T06:51:50;8.60;87.90
67050;DHT22;53955;52.442;13.284;2023-02-03T06:54:17;8.70;88.30
67050;DHT22;53955;52.442;13.284;2023-02-03T06:56:43;8.60;88.20
67050;DHT22;53955;52.442;13.284;2023-02-03T06:59:10;8.70;88.10
67050;DHT22;53955;52.442;13.284;2023-02-03T07:01:38;8.60;88.40
67050;DHT22;53955;52.442;13.284;2023-02-03T07:04:05;8.70;88.70
67050;DHT22;53955;52.442;13.284;2023-02-03T07:06:32;8.70;88.70
67050;DHT22;53955;52.442;13.284;2023-02-03T07:09:00;8.70;88.60
67050;DHT22;53955;52.442;13.284;2023-02-03T07:11:27;8.70;88.70
67050;DHT22;53955;52.442;13.284;2023-02-03T07:13:54;8.80;88.90
67050;DHT22;53955;52.442;13.284;2023-02-03T07:16:21;8.90;88.60
67050;DHT22;53955;52.442;13.284;2023-02-03T07:18:49;8.80;88.40
67050;DHT22;53955;52.442;13.284;2023-02-03T07:21:15;8.80;88.90
67050;DHT22;53955;52.442;13.284;2023-02-03T07:23:42;8.80;89.10
67050;DHT22;53955;52.442;13.284;2023-02-03T07:26:11;8.80;89.10
67050;DHT22;53955;52.442;13.284;2023-02-03T07:28:38;8.70;89.10
67050;DHT22;53955;52.442;13.284;2023-02-03T07:31:04;8.80;89.30
67050;DHT22;53955;52.442;13.284;2023-02-03T07:33:32;8.70;89.10
67050;DHT22;53955;52.442;13.284;2023-02-03T07:36:01;8.90;89.30
67050;DHT22;53955;52.442;13.284;2023-02-03T07:38:28;8.90;89.40
67050;DHT22;53955;52.442;13.284;2023-02-03T07:40:55;8.90;89.10
67050;DHT22;53955;52.442;13.284;2023-02-03T07:43:22;8.80;88.90
67050;DHT22;53955;52.442;13.284;2023-02-03T07:45:49;8.90;89.20
67050;DHT22;53955;52.442;13.284;2023-02-03T07:48:16;8.90;89.40
67050;DHT22;53955;52.442;13.284;2023-02-03T07:50:42;8.90;89.50
67050;DHT22;53955;52.442;13.284;2023-02-03T07:53:11;8.90;89.50
67050;DHT22;53955;52.442;13.284;2023-02-03T07:55:38;8.90;89.00
67050;DHT22;53955;52.442;13.284;2023-02-03T07:58:05;8.90;89.30
67050;DHT22;53955;52.442;13.284;2023-02-03T08:00:31;8.90;89.40
67050;DHT22;53955;52.442;13.284;2023-02-03T08:02:58;9.00;89.10
67050;DHT22;53955;52.442;13.284;2023-02-03T08:05:25;9.00;89.30
67050;DHT22;53955;52.442;13.284;2023-02-03T08:07:51;9.00;89.20
67050;DHT22;53955;52.442;13.284;2023-02-03T08:10:19;9.00;89.30
67050;DHT22;53955;52.442;13.284;2023-02-03T08:12:46;8.90;89.40
67050;DHT22;53955;52.442;13.284;2023-02-03T08:15:13;9.00;89.40
67050;DHT22;53955;52.442;13.284;2023-02-03T08:17:39;9.00;89.40
67050;DHT22;53955;52.442;13.284;2023-02-03T08:20:07;8.90;88.90
67050;DHT22;53955;52.442;13.284;2023-02-03T08:22:34;9.00;89.20
67050;DHT22;53955;52.442;13.284;2023-02-03T08:25:00;9.00;89.70
67050;DHT22;53955;52.442;13.284;2023-02-03T08:27:30;9.00;89.50
67050;DHT22;53955;52.442;13.284;2023-02-03T08:29:57;9.00;90.00
67050;DHT22;53955;52.442;13.284;2023-02-03T08:32:25;9.00;89.50
67050;DHT22;53955;52.442;13.284;2023-02-03T08:34:52;9.00;89.70
67050;DHT22;53955;52.442;13.284;2023-02-03T08:37:20;8.90;90.20
67050;DHT22;53955;52.442;13.284;2023-02-03T08:39:49;9.10;89.60
67050;DHT22;53955;52.442;13.284;2023-02-03T08:42:16;9.00;90.00
67050;DHT22;53955;52.442;13.284;2023-02-03T08:44:44;9.00;89.70
67050;DHT22;53955;52.442;13.284;2023-02-03T08:47:11;9.00;90.00
67050;DHT22;53955;52.442;13.284;2023-02-03T08:49:38;9.10;89.80
67050;DHT22;53955;52.442;13.284;2023-02-03T08:52:06;9.00;90.40
67050;DHT22;53955;52.442;13.284;2023-02-03T08:54:33;9.10;90.00
67050;DHT22;53955;52.442;13.284;2023-02-03T08:56:59;9.10;90.40
67050;DHT22;53955;52.442;13.284;2023-02-03T08:59:26;9.00;90.20
67050;DHT22;53955;52.442;13.284;2023-02-03T09:01:54;9.10;90.30
67050;DHT22;53955;52.442;13.284;2023-02-03T09:04:24;9.00;90.00
67050;DHT22;53955;52.442;13.284;2023-02-03T09:06:51;9.20;90.40
67050;DHT22;53955;52.442;13.284;2023-02-03T09:09:19;9.10;90.50
67050;DHT22;53955;52.442;13.284;2023-02-03T09:11:45;9.10;90.30
67050;DHT22;53955;52.442;13.284;2023-02-03T09:14:12;9.10;90.30
67050;DHT22;53955;52.442;13.284;2023-02-03T09:16:39;9.10;90.60
67050;DHT22;53955;52.442;13.284;2023-02-03T09:19:07;9.20;90.30
67050;DHT22;53955;52.442;13.284;2023-02-03T09:21:34;9.20;90.40
67050;DHT22;53955;52.442;13.284;2023-02-03T09:24:01;9.20;90.40
67050;DHT22;53955;52.442;13.284;2023-02-03T09:26:28;9.10;90.00
67050;DHT22;53955;52.442;13.284;2023-02-03T09:28:54;9.10;90.40
67050;DHT22;53955;52.442;13.284;2023-02-03T09:31:21;9.10;90.30
67050;DHT22;53955;52.442;13.284;2023-02-03T09:33:48;9.10;90.60
67050;DHT22;53955;52.442;13.284;2023-02-03T09:36:15;9.20;90.60
67050;DHT22;53955;52.442;13.284;2023-02-03T09:38:42;9.20;90.40
67050;DHT22;53955;52.442;13.284;2023-02-03T09:41:17;9.20;90.60
67050;DHT22;53955;52.442;13.284;2023-02-03T09:43:49;9.10;90.70
67050;DHT22;53955;52.442;13.284;2023-02-03T09:46:20;9.30;90.50
67050;DHT22;53955;52.442;13.284;2023-02-03T09:48:52;9.30;90.60
67050;DHT22;53955;52.442;13.284;2023-02-03T09:51:25;9.30;90.80
67050;DHT22;53955;52.442;13.284;2023-02-03T09:53:57;9.30;90.90
67050;DHT22;53955;52.442;13.284;2023-02-03T09:56:28;9.30;90.70
67050;DHT22;53955;52.442;13.284;2023-02-03T09:58:56;9.30;90.80
67050;DHT22;53955;52.442;13.284;2023-02-03T10:01:24;9.40;90.40
67050;DHT22;53955;52.442;13.284;2023-02-03T10:03:58;9.30;90.80
67050;DHT22;53955;52.442;13.284;2023-02-03T10:06:31;9.40;90.70
67050;DHT22;53955;52.442;13.284;2023-02-03T10:09:18;9.30;90.50
67050;DHT22;53955;52.442;13.284;2023-02-03T10:12:00;9.40;90.30
67050;DHT22;53955;52.442;13.284;2023-02-03T10:14:42;9.40;90.60
67050;DHT22;53955;52.442;13.284;2023-02-03T10:17:20;9.40;90.70
67050;DHT22;53955;52.442;13.284;2023-02-03T10:19:55;9.40;90.70
67050;DHT22;53955;52.442;13.284;2023-02-03T10:22:29;9.50;90.50
67050;DHT22;53955;52.442;13.284;2023-02-03T10:24:58;9.50;90.50
67050;DHT22;53955;52.442;13.284;2023-02-03T10:27:27;9.50;90.50
67050;DHT22;53955;52.442;13.284;2023-02-03T10:29:58;9.60;90.70
67050;DHT22;53955;52.442;13.284;2023-02-03T10:32:27;9.50;90.70
67050;DHT22;53955;52.442;13.284;2023-02-03T10:34:55;9.60;90.50
67050;DHT22;53955;52.442;13.284;2023-02-03T10:37:28;9.60;90.80
67050;DHT22;53955;52.442;13.284;2023-02-03T10:39:57;9.50;90.40
67050;DHT22;53955;52.442;13.284;2023-02-03T10:42:25;9.60;90.80
67050;DHT22;53955;52.442;13.284;2023-02-03T10:45:12;9.70;90.20
67050;DHT22;53955;52.442;13.284;2023-02-03T10:47:40;9.60;90.10
67050;DHT22;53955;52.442;13.284;2023-02-03T10:50:17;9.70;90.10
67050;DHT22;53955;52.442;13.284;2023-02-03T10:52:45;9.60;90.30
67050;DHT22;53955;52.442;13.284;2023-02-03T10:55:27;9.70;89.90
67050;DHT22;53955;52.442;13.284;2023-02-03T10:57:56;9.70;89.40
67050;DHT22;53955;52.442;13.284;2023-02-03T11:00:27;9.50;88.20
67050;DHT22;53955;52.442;13.284;2023-02-03T11:02:56;9.40;86.00
67050;DHT22;53955;52.442;13.284;2023-02-03T11:05:24;9.30;86.10
67050;DHT22;53955;52.442;13.284;2023-02-03T11:07:52;9.20;85.70
67050;DHT22;53955;52.442;13.284;2023-02-03T11:10:30;9.30;86.40
67050;DHT22;53955;52.442;13.284;2023-02-03T11:13:19;9.30;86.00
67050;DHT22;53955;52.442;13.284;2023-02-03T11:15:54;9.40;86.00
67050;DHT22;53955;52.442;13.284;2023-02-03T11:18:34;9.40;86.10
67050;DHT22;53955;52.442;13.284;2023-02-03T11:21:06;9.40;85.20
67050;DHT22;53955;52.442;13.284;2023-02-03T11:23:34;9.40;84.10
67050;DHT22;53955;52.442;13.284;2023-02-03T11:26:08;9.40;83.30
67050;DHT22;53955;52.442;13.284;2023-02-03T11:28:35;9.30;81.60
67050;DHT22;53955;52.442;13.284;2023-02-03T11:31:02;9.40;81.80
67050;DHT22;53955;52.442;13.284;2023-02-03T11:33:28;9.30;81.20
67050;DHT22;53955;52.442;13.284;2023-02-03T11:35:57;9.40;80.60
67050;DHT22;53955;52.442;13.284;2023-02-03T11:38:29;9.30;79.50
67050;DHT22;53955;52.442;13.284;2023-02-03T11:40:59;9.30;79.40
67050;DHT22;53955;52.442;13.284;2023-02-03T11:43:27;9.30;79.50
67050;DHT22;53955;52.442;13.284;2023-02-03T11:45:59;9.40;79.90
67050;DHT22;53955;52.442;13.284;2023-02-03T11:48:28;9.40;79.60
67050;DHT22;53955;52.442;13.284;2023-02-03T11:51:00;9.50;79.20
67050;DHT22;53955;52.442;13.284;2023-02-03T11:53:30;9.40;78.60
67050;DHT22;53955;52.442;13.284;2023-02-03T11:56:19;9.60;79.10
67050;DHT22;53955;52.442;13.284;2023-02-03T11:58:58;9.80;77.40
67050;DHT22;53955;52.442;13.284;2023-02-03T12:01:46;9.80;78.00
67050;DHT22;53955;52.442;13.284;2023-02-03T12:04:33;9.90;75.20
67050;DHT22;53955;52.442;13.284;2023-02-03T12:07:17;9.90;76.60
67050;DHT22;53955;52.442;13.284;2023-02-03T12:09:49;9.80;76.10
67050;DHT22;53955;52.442;13.284;2023-02-03T12:12:43;9.90;76.40
67050;DHT22;53955;52.442;13.284;2023-02-03T12:15:26;10.00;76.40
67050;DHT22;53955;52.442;13.284;2023-02-03T12:18:07;10.10;75.80
67050;DHT22;53955;52.442;13.284;2023-02-03T12:20:46;10.20;75.50
67050;DHT22;53955;52.442;13.284;2023-02-03T12:23:25;10.30;75.50
67050;DHT22;53955;52.442;13.284;2023-02-03T12:26:02;10.20;74.10
67050;DHT22;53955;52.442;13.284;2023-02-03T12:28:47;10.30;73.00
67050;DHT22;53955;52.442;13.284;2023-02-03T12:31:22;10.40;72.70
67050;DHT22;53955;52.442;13.284;2023-02-03T12:33:58;10.50;71.40
67050;DHT22;53955;52.442;13.284;2023-02-03T12:36:29;10.50;70.30
67050;DHT22;53955;52.442;13.284;2023-02-03T12:39:00;10.40;69.90
67050;DHT22;53955;52.442;13.284;2023-02-03T12:41:33;10.50;68.80
67050;DHT22;53955;52.442;13.284;2023-02-03T12:44:05;10.60;68.20
67050;DHT22;53955;52.442;13.284;2023-02-03T12:46:36;10.50;64.30
67050;DHT22;53955;52.442;13.284;2023-02-03T12:49:12;10.60;66.20
67050;DHT22;53955;52.442;13.284;2023-02-03T12:51:44;10.60;65.00
67050;DHT22;53955;52.442;13.284;2023-02-03T12:54:24;10.70;66.00
67050;DHT22;53955;52.442;13.284;2023-02-03T12:56:56;10.70;64.80
67050;DHT22;53955;52.442;13.284;2023-02-03T12:59:26;10.50;63.20
67050;DHT22;53955;52.442;13.284;2023-02-03T13:01:55;10.40;64.30
67050;DHT22;53955;52.442;13.284;2023-02-03T13:04:24;10.40;64.10
67050;DHT22;53955;52.442;13.284;2023-02-03T13:06:56;10.30;67.70
67050;DHT22;53955;52.442;13.284;2023-02-03T13:09:27;10.10;69.60
67050;DHT22;53955;52.442;13.284;2023-02-03T13:11:57;9.90;72.10
67050;DHT22;53955;52.442;13.284;2023-02-03T13:14:30;9.70;73.50
67050;DHT22;53955;52.442;13.284;2023-02-03T13:16:59;9.50;73.80
67050;DHT22;53955;52.442;13.284;2023-02-03T13:19:31;9.30;74.80
67050;DHT22;53955;52.442;13.284;2023-02-03T13:22:04;9.10;73.60
67050;DHT22;53955;52.442;13.284;2023-02-03T13:24:34;8.90;75.00
67050;DHT22;53955;52.442;13.284;2023-02-03T13:27:17;8.60;75.20
67050;DHT22;53955;52.442;13.284;2023-02-03T13:30:16;8.30;76.30
67050;DHT22;53955;52.442;13.284;2023-02-03T13:33:06;8.30;77.00
67050;DHT22;53955;52.442;13.284;2023-02-03T13:35:50;8.20;77.70
67050;DHT22;53955;52.442;13.284;2023-02-03T13:38:32;8.20;77.80
67050;DHT22;53955;52.442;13.284;2023-02-03T13:41:07;8.20;77.40
67050;DHT22;53955;52.442;13.284;2023-02-03T13:43:38;8.30;77.00
67050;DHT22;53955;52.442;13.284;2023-02-03T13:46:16;8.40;77.80
67050;DHT22;53955;52.442;13.284;2023-02-03T13:48:45;8.50;76.70
67050;DHT22;53955;52.442;13.284;2023-02-03T13:51:12;8.60;76.40
67050;DHT22;53955;52.442;13.284;2023-02-03T13:53:40;8.50;76.60
67050;DHT22;53955;52.442;13.284;2023-02-03T13:56:14;8.50;76.70
67050;DHT22;53955;52.442;13.284;2023-02-03T13:58:41;8.70;76.00
67050;DHT22;53955;52.442;13.284;2023-02-03T14:01:31;8.80;76.20
67050;DHT22;53955;52.442;13.284;2023-02-03T14:03:59;8.80;75.70
67050;DHT22;53955;52.442;13.284;2023-02-03T14:06:58;8.80;75.10
67050;DHT22;53955;52.442;13.284;2023-02-03T14:09:44;8.90;74.80
67050;DHT22;53955;52.442;13.284;2023-02-03T14:15:31;8.90;73.90
67050;DHT22;53955;52.442;13.284;2023-02-03T14:18:17;8.90;74.10
67050;DHT22;53955;52.442;13.284;2023-02-03T14:21:08;8.90;73.50
67050;DHT22;53955;52.442;13.284;2023-02-03T14:23:48;9.00;72.90
67050;DHT22;53955;52.442;13.284;2023-02-03T14:26:19;9.00;73.10
67050;DHT22;53955;52.442;13.284;2023-02-03T14:28:47;9.00;72.60
67050;DHT22;53955;52.442;13.284;2023-02-03T14:31:17;9.00;73.30
67050;DHT22;53955;52.442;13.284;2023-02-03T14:33:53;9.10;72.20
67050;DHT22;53955;52.442;13.284;2023-02-03T14:36:30;9.20;71.80
67050;DHT22;53955;52.442;13.284;2023-02-03T14:39:00;9.20;71.20
67050;DHT22;53955;52.442;13.284;2023-02-03T14:41:35;9.20;71.40
67050;DHT22;53955;52.442;13.284;2023-02-03T14:44:11;9.30;70.60
67050;DHT22;53955;52.442;13.284;2023-02-03T14:47:03;9.30;70.50
67050;DHT22;53955;52.442;13.284;2023-02-03T14:50:00;9.40;69.20
67050;DHT22;53955;52.442;13.284;2023-02-03T14:52:47;9.40;67.40
67050;DHT22;53955;52.442;13.284;2023-02-03T14:55:39;9.40;67.10
67050;DHT22;53955;52.442;13.284;2023-02-03T14:58:20;9.50;66.90
67050;DHT22;53955;52.442;13.284;2023-02-03T15:00:48;9.40;65.50
67050;DHT22;53955;52.442;13.284;2023-02-03T15:03:22;9.50;65.30
67050;DHT22;53955;52.442;13.284;2023-02-03T15:05:53;9.40;64.60
67050;DHT22;53955;52.442;13.284;2023-02-03T15:08:45;9.30;65.90
67050;DHT22;53955;52.442;13.284;2023-02-03T15:11:27;9.30;65.90
67050;DHT22;53955;52.442;13.284;2023-02-03T15:13:55;9.30;65.10
67050;DHT22;53955;52.442;13.284;2023-02-03T15:16:23;9.30;65.50
67050;DHT22;53955;52.442;13.284;2023-02-03T15:18:56;9.30;65.90
67050;DHT22;53955;52.442;13.284;2023-02-03T15:21:24;9.20;65.90
67050;DHT22;53955;52.442;13.284;2023-02-03T15:23:52;9.30;66.20
67050;DHT22;53955;52.442;13.284;2023-02-03T15:26:20;9.20;65.70
67050;DHT22;53955;52.442;13.284;2023-02-03T15:28:56;9.20;66.10
67050;DHT22;53955;52.442;13.284;2023-02-03T15:31:28;9.20;65.80
67050;DHT22;53955;52.442;13.284;2023-02-03T15:34:02;9.30;66.30
67050;DHT22;53955;52.442;13.284;2023-02-03T15:36:37;9.20;67.20
67050;DHT22;53955;52.442;13.284;2023-02-03T15:39:15;9.20;67.40
67050;DHT22;53955;52.442;13.284;2023-02-03T15:41:44;9.20;68.60
67050;DHT22;53955;52.442;13.284;2023-02-03T15:44:25;9.20;68.60
67050;DHT22;53955;52.442;13.284;2023-02-03T15:46:54;9.10;68.90
67050;DHT22;53955;52.442;13.284;2023-02-03T15:49:25;9.10;69.10
67050;DHT22;53955;52.442;13.284;2023-02-03T15:51:57;8.90;69.10
67050;DHT22;53955;52.442;13.284;2023-02-03T15:54:29;9.00;69.30